sensor_id;sensor_type;location;lat;lon;timestamp;P1;durP1;ratioP1;P2;durP2;ratioP2
36709;SDS011;22694;51.040;3.684;2022-11-14T00:02:11;9.63;;;8.65;;
36709;SDS011;22694;51.040;3.684;2022-11-14T00:04:37;9.88;;;8.80;;
36709;SDS011;22694;51.040;3.684;2022-11-14T00:07:02;10.23;;;9.13;;
36709;SDS011;22694;51.040;3.684;2022-11-14T00:09:28;10.10;;;9.10;;
36709;SDS011;22694;51.040;3.684;2022-11-14T00:11:54;9.48;;;8.48;;
36709;SDS011;22694;51.040;3.684;2022-11-14T00:14:20;9.60;;;8.60;;
36709;SDS011;22694;51.040;3.684;2022-11-14T00:16:46;10.27;;;8.90;;
36709;SDS011;22694;51.040;3.684;2022-11-14T00:19:11;9.35;;;8.40;;
36709;SDS011;22694;51.040;3.684;2022-11-14T00:21:37;9.98;;;8.98;;
36709;SDS011;22694;51.040;3.684;2022-11-14T00:24:03;9.85;;;8.85;;
36709;SDS011;22694;51.040;3.684;2022-11-14T00:26:29;10.13;;;9.02;;
36709;SDS011;22694;51.040;3.684;2022-11-14T00:28:55;9.88;;;8.88;;
36709;SDS011;22694;51.040;3.684;2022-11-14T00:31:20;9.65;;;8.68;;
36709;SDS011;22694;51.040;3.684;2022-11-14T00:33:46;9.25;;;8.35;;
36709;SDS011;22694;51.040;3.684;2022-11-14T00:36:12;9.75;;;8.75;;
36709;SDS011;22694;51.040;3.684;2022-11-14T00:38:37;10.38;;;8.48;;
36709;SDS011;22694;51.040;3.684;2022-11-14T00:41:03;9.75;;;8.80;;
36709;SDS011;22694;51.040;3.684;2022-11-14T00:43:29;9.23;;;8.32;;
36709;SDS011;22694;51.040;3.684;2022-11-14T00:45:54;9.23;;;8.23;;
36709;SDS011;22694;51.040;3.684;2022-11-14T00:48:20;9.30;;;8.40;;
36709;SDS011;22694;51.040;3.684;2022-11-14T00:50:46;9.00;;;8.10;;
36709;SDS011;22694;51.040;3.684;2022-11-14T00:53:11;9.02;;;8.13;;
36709;SDS011;22694;51.040;3.684;2022-11-14T00:55:37;9.48;;;8.57;;
36709;SDS011;22694;51.040;3.684;2022-11-14T00:58:03;9.70;;;8.50;;
36709;SDS011;22694;51.040;3.684;2022-11-14T01:00:28;9.68;;;8.68;;
36709;SDS011;22694;51.040;3.684;2022-11-14T01:02:54;9.85;;;8.23;;
36709;SDS011;22694;51.040;3.684;2022-11-14T01:05:21;8.85;;;8.02;;
36709;SDS011;22694;51.040;3.684;2022-11-14T01:07:48;9.88;;;8.50;;
36709;SDS011;22694;51.040;3.684;2022-11-14T01:10:14;9.02;;;8.13;;
36709;SDS011;22694;51.040;3.684;2022-11-14T01:12:40;8.80;;;7.85;;
36709;SDS011;22694;51.040;3.684;2022-11-14T01:15:06;8.40;;;7.60;;
36709;SDS011;22694;51.040;3.684;2022-11-14T01:17:32;9.20;;;8.27;;
36709;SDS011;22694;51.040;3.684;2022-11-14T01:19:58;8.98;;;8.13;;
36709;SDS011;22694;51.040;3.684;2022-11-14T01:22:23;8.60;;;7.70;;
36709;SDS011;22694;51.040;3.684;2022-11-14T01:24:49;8.45;;;7.65;;
36709;SDS011;22694;51.040;3.684;2022-11-14T01:27:15;7.53;;;6.82;;
36709;SDS011;22694;51.040;3.684;2022-11-14T01:29:40;8.45;;;7.65;;
36709;SDS011;22694;51.040;3.684;2022-11-14T01:32:06;8.95;;;8.05;;
36709;SDS011;22694;51.040;3.684;2022-11-14T01:34:32;8.00;;;7.30;;
36709;SDS011;22694;51.040;3.684;2022-11-14T01:36:57;8.77;;;7.88;;
36709;SDS011;22694;51.040;3.684;2022-11-14T01:39:24;8.85;;;8.05;;
36709;SDS011;22694;51.040;3.684;2022-11-14T01:41:50;8.70;;;7.90;;
36709;SDS011;22694;51.040;3.684;2022-11-14T01:44:16;8.73;;;7.88;;
36709;SDS011;22694;51.040;3.684;2022-11-14T01:47:01;8.32;;;7.53;;
36709;SDS011;22694;51.040;3.684;2022-11-14T01:49:35;8.55;;;7.75;;
36709;SDS011;22694;51.040;3.684;2022-11-14T01:52:06;8.90;;;8.00;;
36709;SDS011;22694;51.040;3.684;2022-11-14T01:54:41;8.60;;;7.57;;
36709;SDS011;22694;51.040;3.684;2022-11-14T01:57:10;9.00;;;8.10;;
36709;SDS011;22694;51.040;3.684;2022-11-14T01:59:43;9.00;;;8.10;;
36709;SDS011;22694;51.040;3.684;2022-11-14T02:02:17;9.25;;;8.35;;
36709;SDS011;22694;51.040;3.684;2022-11-14T02:04:49;9.07;;;8.18;;
36709;SDS011;22694;51.040;3.684;2022-11-14T02:07:19;9.63;;;8.63;;
36709;SDS011;22694;51.040;3.684;2022-11-14T02:09:45;9.55;;;8.65;;
36709;SDS011;22694;51.040;3.684;2022-11-14T02:12:12;9.27;;;8.38;;
36709;SDS011;22694;51.040;3.684;2022-11-14T02:14:40;9.55;;;8.65;;
36709;SDS011;22694;51.040;3.684;2022-11-14T02:17:09;9.43;;;8.38;;
36709;SDS011;22694;51.040;3.684;2022-11-14T02:19:49;9.68;;;8.68;;
36709;SDS011;22694;51.040;3.684;2022-11-14T02:22:17;9.80;;;8.80;;
36709;SDS011;22694;51.040;3.684;2022-11-14T02:24:43;10.13;;;8.88;;
36709;SDS011;22694;51.040;3.684;2022-11-14T02:27:08;8.95;;;8.15;;
36709;SDS011;22694;51.040;3.684;2022-11-14T02:29:35;9.38;;;8.48;;
36709;SDS011;22694;51.040;3.684;2022-11-14T02:32:01;9.38;;;8.40;;
36709;SDS011;22694;51.040;3.684;2022-11-14T02:34:28;10.20;;;9.20;;
36709;SDS011;22694;51.040;3.684;2022-11-14T02:36:54;9.52;;;8.57;;
36709;SDS011;22694;51.040;3.684;2022-11-14T02:39:20;9.45;;;8.55;;
36709;SDS011;22694;51.040;3.684;2022-11-14T02:41:46;9.93;;;8.98;;
36709;SDS011;22694;51.040;3.684;2022-11-14T02:44:12;10.02;;;9.02;;
36709;SDS011;22694;51.040;3.684;2022-11-14T02:46:37;11.25;;;9.23;;
36709;SDS011;22694;51.040;3.684;2022-11-14T02:49:03;10.20;;;9.15;;
36709;SDS011;22694;51.040;3.684;2022-11-14T02:51:28;9.80;;;8.80;;
36709;SDS011;22694;51.040;3.684;2022-11-14T02:53:54;9.82;;;8.77;;
36709;SDS011;22694;51.040;3.684;2022-11-14T02:56:20;9.52;;;8.60;;
36709;SDS011;22694;51.040;3.684;2022-11-14T02:58:45;10.20;;;8.90;;
36709;SDS011;22694;51.040;3.684;2022-11-14T03:01:11;9.52;;;8.52;;
36709;SDS011;22694;51.040;3.684;2022-11-14T03:03:36;9.15;;;8.25;;
36709;SDS011;22694;51.040;3.684;2022-11-14T03:06:02;10.13;;;9.13;;
36709;SDS011;22694;51.040;3.684;2022-11-14T03:08:29;10.10;;;8.45;;
36709;SDS011;22694;51.040;3.684;2022-11-14T03:10:54;9.05;;;8.13;;
36709;SDS011;22694;51.040;3.684;2022-11-14T03:13:20;9.55;;;8.55;;
36709;SDS011;22694;51.040;3.684;2022-11-14T03:15:46;9.32;;;8.43;;
36709;SDS011;22694;51.040;3.684;2022-11-14T03:18:12;9.57;;;8.57;;
36709;SDS011;22694;51.040;3.684;2022-11-14T03:20:37;9.73;;;8.65;;
36709;SDS011;22694;51.040;3.684;2022-11-14T03:23:03;9.02;;;8.13;;
36709;SDS011;22694;51.040;3.684;2022-11-14T03:25:29;8.85;;;7.95;;
36709;SDS011;22694;51.040;3.684;2022-11-14T03:27:55;9.00;;;8.10;;
36709;SDS011;22694;51.040;3.684;2022-11-14T03:30:20;8.70;;;7.90;;
36709;SDS011;22694;51.040;3.684;2022-11-14T03:32:46;9.10;;;8.00;;
36709;SDS011;22694;51.040;3.684;2022-11-14T03:35:12;8.50;;;7.70;;
36709;SDS011;22694;51.040;3.684;2022-11-14T03:37:37;8.80;;;7.97;;
36709;SDS011;22694;51.040;3.684;2022-11-14T03:40:03;9.10;;;8.25;;
36709;SDS011;22694;51.040;3.684;2022-11-14T03:42:33;9.02;;;8.13;;
36709;SDS011;22694;51.040;3.684;2022-11-14T03:44:59;8.50;;;7.72;;
36709;SDS011;22694;51.040;3.684;2022-11-14T03:47:25;9.05;;;8.15;;
36709;SDS011;22694;51.040;3.684;2022-11-14T03:49:50;9.05;;;8.15;;
36709;SDS011;22694;51.040;3.684;2022-11-14T03:52:16;8.82;;;7.93;;
36709;SDS011;22694;51.040;3.684;2022-11-14T03:54:41;8.20;;;7.50;;
36709;SDS011;22694;51.040;3.684;2022-11-14T03:57:07;9.10;;;8.20;;
36709;SDS011;22694;51.040;3.684;2022-11-14T03:59:32;8.50;;;7.60;;
36709;SDS011;22694;51.040;3.684;2022-11-14T04:01:58;8.60;;;7.80;;
36709;SDS011;22694;51.040;3.684;2022-11-14T04:04:23;8.50;;;7.68;;
36709;SDS011;22694;51.040;3.684;2022-11-14T04:06:49;8.23;;;7.50;;
36709;SDS011;22694;51.040;3.684;2022-11-14T04:09:15;8.07;;;7.28;;
36709;SDS011;22694;51.040;3.684;2022-11-14T04:11:40;8.40;;;7.60;;
36709;SDS011;22694;51.040;3.684;2022-11-14T04:14:06;8.52;;;7.63;;
36709;SDS011;22694;51.040;3.684;2022-11-14T04:16:31;9.13;;;8.18;;
36709;SDS011;22694;51.040;3.684;2022-11-14T04:18:57;8.13;;;7.40;;
36709;SDS011;22694;51.040;3.684;2022-11-14T04:21:22;8.13;;;7.32;;
36709;SDS011;22694;51.040;3.684;2022-11-14T04:23:48;8.48;;;7.68;;
36709;SDS011;22694;51.040;3.684;2022-11-14T04:26:14;8.50;;;7.68;;
36709;SDS011;22694;51.040;3.684;2022-11-14T04:28:39;7.40;;;6.80;;
36709;SDS011;22694;51.040;3.684;2022-11-14T04:31:05;7.90;;;7.07;;
36709;SDS011;22694;51.040;3.684;2022-11-14T04:33:30;8.38;;;7.57;;
36709;SDS011;22694;51.040;3.684;2022-11-14T04:35:56;7.82;;;7.03;;
36709;SDS011;22694;51.040;3.684;2022-11-14T04:38:21;7.50;;;6.80;;
36709;SDS011;22694;51.040;3.684;2022-11-14T04:40:51;7.57;;;6.88;;
36709;SDS011;22694;51.040;3.684;2022-11-14T04:43:17;7.72;;;7.03;;
36709;SDS011;22694;51.040;3.684;2022-11-14T04:45:44;7.20;;;6.50;;
36709;SDS011;22694;51.040;3.684;2022-11-14T04:48:10;7.55;;;6.85;;
36709;SDS011;22694;51.040;3.684;2022-11-14T04:50:36;6.75;;;6.13;;
36709;SDS011;22694;51.040;3.684;2022-11-14T04:53:01;6.45;;;5.85;;
36709;SDS011;22694;51.040;3.684;2022-11-14T04:55:27;7.03;;;6.43;;
36709;SDS011;22694;51.040;3.684;2022-11-14T04:57:54;7.03;;;6.43;;
36709;SDS011;22694;51.040;3.684;2022-11-14T05:00:20;6.80;;;6.10;;
36709;SDS011;22694;51.040;3.684;2022-11-14T05:02:46;6.10;;;5.60;;
36709;SDS011;22694;51.040;3.684;2022-11-14T05:05:12;6.47;;;5.88;;
36709;SDS011;22694;51.040;3.684;2022-11-14T05:07:37;6.30;;;5.70;;
36709;SDS011;22694;51.040;3.684;2022-11-14T05:10:03;6.53;;;5.93;;
36709;SDS011;22694;51.040;3.684;2022-11-14T05:12:29;6.50;;;5.90;;
36709;SDS011;22694;51.040;3.684;2022-11-14T05:14:55;5.68;;;5.15;;
36709;SDS011;22694;51.040;3.684;2022-11-14T05:17:21;5.72;;;5.22;;
36709;SDS011;22694;51.040;3.684;2022-11-14T05:19:46;5.90;;;5.40;;
36709;SDS011;22694;51.040;3.684;2022-11-14T05:22:12;6.07;;;5.43;;
36709;SDS011;22694;51.040;3.684;2022-11-14T05:24:38;5.63;;;5.13;;
36709;SDS011;22694;51.040;3.684;2022-11-14T05:27:03;6.85;;;5.28;;
36709;SDS011;22694;51.040;3.684;2022-11-14T05:29:29;6.07;;;5.47;;
36709;SDS011;22694;51.040;3.684;2022-11-14T05:31:54;5.50;;;5.00;;
36709;SDS011;22694;51.040;3.684;2022-11-14T05:34:21;5.60;;;5.10;;
36709;SDS011;22694;51.040;3.684;2022-11-14T05:36:47;5.40;;;4.90;;
36709;SDS011;22694;51.040;3.684;2022-11-14T05:39:13;5.50;;;5.00;;
36709;SDS011;22694;51.040;3.684;2022-11-14T05:41:39;5.22;;;4.82;;
36709;SDS011;22694;51.040;3.684;2022-11-14T05:44:04;5.28;;;4.78;;
36709;SDS011;22694;51.040;3.684;2022-11-14T05:46:30;5.00;;;4.60;;
36709;SDS011;22694;51.040;3.684;2022-11-14T05:48:56;5.43;;;4.88;;
36709;SDS011;22694;51.040;3.684;2022-11-14T05:51:22;5.43;;;4.95;;
36709;SDS011;22694;51.040;3.684;2022-11-14T05:53:47;5.68;;;5.18;;
36709;SDS011;22694;51.040;3.684;2022-11-14T05:56:13;4.60;;;4.20;;
36709;SDS011;22694;51.040;3.684;2022-11-14T05:58:39;5.50;;;5.00;;
36709;SDS011;22694;51.040;3.684;2022-11-14T06:01:08;5.43;;;4.95;;
36709;SDS011;22694;51.040;3.684;2022-11-14T06:03:40;5.53;;;5.05;;
36709;SDS011;22694;51.040;3.684;2022-11-14T06:06:08;5.72;;;4.75;;
36709;SDS011;22694;51.040;3.684;2022-11-14T06:08:35;5.60;;;4.95;;
36709;SDS011;22694;51.040;3.684;2022-11-14T06:11:02;5.00;;;4.50;;
36709;SDS011;22694;51.040;3.684;2022-11-14T06:13:29;5.20;;;4.70;;
36709;SDS011;22694;51.040;3.684;2022-11-14T06:16:02;5.82;;;5.22;;
36709;SDS011;22694;51.040;3.684;2022-11-14T06:18:29;6.35;;;5.30;;
36709;SDS011;22694;51.040;3.684;2022-11-14T06:20:59;5.60;;;4.88;;
36709;SDS011;22694;51.040;3.684;2022-11-14T06:23:26;5.85;;;5.35;;
36709;SDS011;22694;51.040;3.684;2022-11-14T06:25:56;5.85;;;5.35;;
36709;SDS011;22694;51.040;3.684;2022-11-14T06:28:26;6.05;;;5.55;;
36709;SDS011;22694;51.040;3.684;2022-11-14T06:30:55;6.05;;;5.50;;
36709;SDS011;22694;51.040;3.684;2022-11-14T06:33:22;6.68;;;6.07;;
36709;SDS011;22694;51.040;3.684;2022-11-14T06:35:48;6.45;;;5.85;;
36709;SDS011;22694;51.040;3.684;2022-11-14T06:38:13;6.72;;;6.07;;
36709;SDS011;22694;51.040;3.684;2022-11-14T06:40:39;7.10;;;6.40;;
36709;SDS011;22694;51.040;3.684;2022-11-14T06:43:04;6.90;;;6.20;;
36709;SDS011;22694;51.040;3.684;2022-11-14T06:45:30;6.38;;;5.78;;
36709;SDS011;22694;51.040;3.684;2022-11-14T06:47:59;8.95;;;6.22;;
36709;SDS011;22694;51.040;3.684;2022-11-14T06:50:24;6.60;;;6.00;;
36709;SDS011;22694;51.040;3.684;2022-11-14T06:52:50;6.55;;;5.85;;
36709;SDS011;22694;51.040;3.684;2022-11-14T06:55:16;6.90;;;6.25;;
36709;SDS011;22694;51.040;3.684;2022-11-14T06:57:41;6.57;;;6.03;;
36709;SDS011;22694;51.040;3.684;2022-11-14T07:00:07;6.68;;;5.85;;
36709;SDS011;22694;51.040;3.684;2022-11-14T07:02:33;6.72;;;6.03;;
36709;SDS011;22694;51.040;3.684;2022-11-14T07:04:59;6.60;;;6.00;;
36709;SDS011;22694;51.040;3.684;2022-11-14T07:07:24;6.65;;;6.05;;
36709;SDS011;22694;51.040;3.684;2022-11-14T07:09:50;7.00;;;6.30;;
36709;SDS011;22694;51.040;3.684;2022-11-14T07:12:15;6.50;;;5.97;;
36709;SDS011;22694;51.040;3.684;2022-11-14T07:14:41;6.93;;;6.18;;
36709;SDS011;22694;51.040;3.684;2022-11-14T07:17:06;6.30;;;5.70;;
36709;SDS011;22694;51.040;3.684;2022-11-14T07:19:32;6.68;;;6.05;;
36709;SDS011;22694;51.040;3.684;2022-11-14T07:21:58;7.72;;;5.97;;
36709;SDS011;22694;51.040;3.684;2022-11-14T07:24:23;6.97;;;6.28;;
36709;SDS011;22694;51.040;3.684;2022-11-14T07:26:49;6.00;;;5.40;;
36709;SDS011;22694;51.040;3.684;2022-11-14T07:29:14;7.25;;;6.45;;
36709;SDS011;22694;51.040;3.684;2022-11-14T07:31:40;6.72;;;6.13;;
36709;SDS011;22694;51.040;3.684;2022-11-14T07:34:06;6.50;;;5.90;;
36709;SDS011;22694;51.040;3.684;2022-11-14T07:36:33;6.40;;;5.80;;
36709;SDS011;22694;51.040;3.684;2022-11-14T07:38:58;6.57;;;5.88;;
36709;SDS011;22694;51.040;3.684;2022-11-14T07:41:24;6.88;;;6.22;;
36709;SDS011;22694;51.040;3.684;2022-11-14T07:43:49;8.05;;;6.65;;
36709;SDS011;22694;51.040;3.684;2022-11-14T07:46:16;7.38;;;6.32;;
36709;SDS011;22694;51.040;3.684;2022-11-14T07:48:42;6.72;;;6.00;;
36709;SDS011;22694;51.040;3.684;2022-11-14T07:51:09;7.22;;;6.53;;
36709;SDS011;22694;51.040;3.684;2022-11-14T07:53:41;7.03;;;6.32;;
36709;SDS011;22694;51.040;3.684;2022-11-14T07:56:07;8.25;;;4.90;;
36709;SDS011;22694;51.040;3.684;2022-11-14T07:58:37;7.47;;;5.00;;
36709;SDS011;22694;51.040;3.684;2022-11-14T08:01:04;6.68;;;5.20;;
36709;SDS011;22694;51.040;3.684;2022-11-14T08:03:31;6.20;;;4.80;;
36709;SDS011;22694;51.040;3.684;2022-11-14T08:06:03;5.38;;;4.20;;
36709;SDS011;22694;51.040;3.684;2022-11-14T08:08:33;6.15;;;4.90;;
36709;SDS011;22694;51.040;3.684;2022-11-14T08:11:00;5.70;;;4.80;;
36709;SDS011;22694;51.040;3.684;2022-11-14T08:13:26;5.03;;;4.53;;
36709;SDS011;22694;51.040;3.684;2022-11-14T08:15:52;4.95;;;4.45;;
36709;SDS011;22694;51.040;3.684;2022-11-14T08:18:18;5.90;;;4.78;;
36709;SDS011;22694;51.040;3.684;2022-11-14T08:20:44;5.18;;;4.53;;
36709;SDS011;22694;51.040;3.684;2022-11-14T08:23:10;8.27;;;4.68;;
36709;SDS011;22694;51.040;3.684;2022-11-14T08:25:36;6.85;;;5.20;;
36709;SDS011;22694;51.040;3.684;2022-11-14T08:28:02;8.68;;;5.03;;
36709;SDS011;22694;51.040;3.684;2022-11-14T08:30:28;10.98;;;5.63;;
36709;SDS011;22694;51.040;3.684;2022-11-14T08:32:54;12.85;;;6.30;;
36709;SDS011;22694;51.040;3.684;2022-11-14T08:35:20;7.18;;;5.55;;
36709;SDS011;22694;51.040;3.684;2022-11-14T08:37:46;8.73;;;5.55;;
36709;SDS011;22694;51.040;3.684;2022-11-14T08:40:12;9.77;;;5.72;;
36709;SDS011;22694;51.040;3.684;2022-11-14T08:42:37;8.63;;;5.40;;
36709;SDS011;22694;51.040;3.684;2022-11-14T08:45:03;8.75;;;6.15;;
36709;SDS011;22694;51.040;3.684;2022-11-14T08:47:30;6.65;;;5.38;;
36709;SDS011;22694;51.040;3.684;2022-11-14T08:49:55;9.13;;;5.82;;
36709;SDS011;22694;51.040;3.684;2022-11-14T08:52:21;14.25;;;6.18;;
36709;SDS011;22694;51.040;3.684;2022-11-14T08:54:46;7.40;;;5.97;;
36709;SDS011;22694;51.040;3.684;2022-11-14T08:57:12;8.23;;;6.10;;
36709;SDS011;22694;51.040;3.684;2022-11-14T08:59:39;9.48;;;6.10;;
36709;SDS011;22694;51.040;3.684;2022-11-14T09:02:05;8.00;;;5.68;;
36709;SDS011;22694;51.040;3.684;2022-11-14T09:04:38;6.95;;;4.45;;
36709;SDS011;22694;51.040;3.684;2022-11-14T09:07:04;6.38;;;5.53;;
36709;SDS011;22694;51.040;3.684;2022-11-14T09:09:30;7.43;;;6.10;;
36709;SDS011;22694;51.040;3.684;2022-11-14T09:11:56;8.82;;;5.90;;
36709;SDS011;22694;51.040;3.684;2022-11-14T09:14:22;8.13;;;5.25;;
36709;SDS011;22694;51.040;3.684;2022-11-14T09:16:47;6.25;;;4.95;;
36709;SDS011;22694;51.040;3.684;2022-11-14T09:19:13;5.85;;;5.20;;
36709;SDS011;22694;51.040;3.684;2022-11-14T09:21:39;8.50;;;4.78;;
36709;SDS011;22694;51.040;3.684;2022-11-14T09:24:05;10.35;;;6.38;;
36709;SDS011;22694;51.040;3.684;2022-11-14T09:26:30;10.35;;;6.00;;
36709;SDS011;22694;51.040;3.684;2022-11-14T09:28:56;7.32;;;6.47;;
36709;SDS011;22694;51.040;3.684;2022-11-14T09:31:22;10.05;;;6.65;;
36709;SDS011;22694;51.040;3.684;2022-11-14T09:33:48;9.13;;;7.00;;
36709;SDS011;22694;51.040;3.684;2022-11-14T09:36:13;10.13;;;7.82;;
36709;SDS011;22694;51.040;3.684;2022-11-14T09:38:39;10.70;;;8.00;;
36709;SDS011;22694;51.040;3.684;2022-11-14T09:46:19;18.80;;;12.20;;
36709;SDS011;22694;51.040;3.684;2022-11-14T09:48:47;15.57;;;10.60;;
36709;SDS011;22694;51.040;3.684;2022-11-14T09:51:19;17.92;;;11.38;;
36709;SDS011;22694;51.040;3.684;2022-11-14T09:54:38;17.67;;;11.48;;
36709;SDS011;22694;51.040;3.684;2022-11-14T09:56:45;18.70;;;12.18;;
36709;SDS011;22694;51.040;3.684;2022-11-14T09:59:11;16.92;;;12.00;;
36709;SDS011;22694;51.040;3.684;2022-11-14T10:01:47;18.23;;;12.52;;
36709;SDS011;22694;51.040;3.684;2022-11-14T10:12:55;30.35;;;17.60;;
36709;SDS011;22694;51.040;3.684;2022-11-14T10:26:56;36.40;;;21.67;;
36709;SDS011;22694;51.040;3.684;2022-11-14T10:29:42;38.97;;;21.35;;
36709;SDS011;22694;51.040;3.684;2022-11-14T10:32:27;40.50;;;20.83;;
36709;SDS011;22694;51.040;3.684;2022-11-14T10:41:04;43.67;;;22.10;;
36709;SDS011;22694;51.040;3.684;2022-11-14T10:46:16;35.85;;;20.45;;
36709;SDS011;22694;51.040;3.684;2022-11-14T10:48:48;34.28;;;19.70;;
36709;SDS011;22694;51.040;3.684;2022-11-14T10:51:23;37.35;;;20.08;;
36709;SDS011;22694;51.040;3.684;2022-11-14T10:53:58;32.70;;;19.57;;
36709;SDS011;22694;51.040;3.684;2022-11-14T10:56:24;39.50;;;22.02;;
36709;SDS011;22694;51.040;3.684;2022-11-14T10:58:50;35.95;;;19.90;;
36709;SDS011;22694;51.040;3.684;2022-11-14T11:04:32;25.52;;;16.90;;
36709;SDS011;22694;51.040;3.684;2022-11-14T11:09:32;33.17;;;17.48;;
36709;SDS011;22694;51.040;3.684;2022-11-14T11:12:19;28.98;;;17.70;;
36709;SDS011;22694;51.040;3.684;2022-11-14T11:14:47;30.30;;;17.50;;
36709;SDS011;22694;51.040;3.684;2022-11-14T11:17:15;27.50;;;16.33;;
36709;SDS011;22694;51.040;3.684;2022-11-14T11:19:44;29.92;;;16.30;;
36709;SDS011;22694;51.040;3.684;2022-11-14T11:27:46;24.13;;;14.88;;
36709;SDS011;22694;51.040;3.684;2022-11-14T11:30:36;23.88;;;14.82;;
36709;SDS011;22694;51.040;3.684;2022-11-14T11:35:44;19.10;;;13.65;;
36709;SDS011;22694;51.040;3.684;2022-11-14T11:38:12;26.58;;;14.30;;
36709;SDS011;22694;51.040;3.684;2022-11-14T11:40:41;21.98;;;13.73;;
36709;SDS011;22694;51.040;3.684;2022-11-14T11:43:11;19.17;;;13.63;;
36709;SDS011;22694;51.040;3.684;2022-11-14T11:45:54;17.13;;;13.10;;
36709;SDS011;22694;51.040;3.684;2022-11-14T11:48:22;16.90;;;13.13;;
36709;SDS011;22694;51.040;3.684;2022-11-14T11:51:01;24.40;;;16.65;;
36709;SDS011;22694;51.040;3.684;2022-11-14T11:53:33;22.48;;;15.52;;
36709;SDS011;22694;51.040;3.684;2022-11-14T11:56:13;22.10;;;14.00;;
36709;SDS011;22694;51.040;3.684;2022-11-14T11:58:57;19.58;;;13.15;;
36709;SDS011;22694;51.040;3.684;2022-11-14T12:01:34;19.00;;;13.20;;
36709;SDS011;22694;51.040;3.684;2022-11-14T12:04:00;15.18;;;11.93;;
36709;SDS011;22694;51.040;3.684;2022-11-14T12:06:26;14.32;;;11.25;;
36709;SDS011;22694;51.040;3.684;2022-11-14T12:11:32;11.95;;;10.50;;
36709;SDS011;22694;51.040;3.684;2022-11-14T12:17:11;13.00;;;10.10;;
36709;SDS011;22694;51.040;3.684;2022-11-14T12:20:13;13.68;;;9.95;;
36709;SDS011;22694;51.040;3.684;2022-11-14T12:28:49;11.85;;;9.35;;
36709;SDS011;22694;51.040;3.684;2022-11-14T12:31:43;12.80;;;9.02;;
36709;SDS011;22694;51.040;3.684;2022-11-14T12:36:42;10.45;;;9.32;;
36709;SDS011;22694;51.040;3.684;2022-11-14T12:39:18;12.57;;;8.88;;
36709;SDS011;22694;51.040;3.684;2022-11-14T12:41:46;12.10;;;9.95;;
36709;SDS011;22694;51.040;3.684;2022-11-14T12:44:16;11.25;;;8.70;;
36709;SDS011;22694;51.040;3.684;2022-11-14T12:49:36;11.75;;;9.25;;
36709;SDS011;22694;51.040;3.684;2022-11-14T12:52:02;10.98;;;8.73;;
36709;SDS011;22694;51.040;3.684;2022-11-14T12:54:41;10.13;;;9.02;;
36709;SDS011;22694;51.040;3.684;2022-11-14T12:57:10;10.63;;;8.63;;
36709;SDS011;22694;51.040;3.684;2022-11-14T13:00:14;10.02;;;8.30;;
36709;SDS011;22694;51.040;3.684;2022-11-14T13:02:51;11.52;;;8.90;;
36709;SDS011;22694;51.040;3.684;2022-11-14T13:05:42;9.68;;;7.95;;
36709;SDS011;22694;51.040;3.684;2022-11-14T13:10:58;10.80;;;8.40;;
36709;SDS011;22694;51.040;3.684;2022-11-14T13:13:24;10.43;;;8.10;;
36709;SDS011;22694;51.040;3.684;2022-11-14T13:16:20;10.30;;;8.02;;
36709;SDS011;22694;51.040;3.684;2022-11-14T13:22:36;9.93;;;7.20;;
36709;SDS011;22694;51.040;3.684;2022-11-14T13:27:29;9.45;;;7.80;;
36709;SDS011;22694;51.040;3.684;2022-11-14T13:29:56;9.80;;;7.80;;
36709;SDS011;22694;51.040;3.684;2022-11-14T13:35:10;9.68;;;7.70;;
36709;SDS011;22694;51.040;3.684;2022-11-14T13:43:12;9.27;;;8.13;;
36709;SDS011;22694;51.040;3.684;2022-11-14T13:51:19;11.65;;;8.02;;
36709;SDS011;22694;51.040;3.684;2022-11-14T13:53:48;9.23;;;8.27;;
36709;SDS011;22694;51.040;3.684;2022-11-14T13:56:33;9.15;;;7.72;;
36709;SDS011;22694;51.040;3.684;2022-11-14T14:01:58;10.00;;;8.32;;
36709;SDS011;22694;51.040;3.684;2022-11-14T14:07:19;9.27;;;8.38;;
36709;SDS011;22694;51.040;3.684;2022-11-14T14:10:25;10.13;;;8.10;;
36709;SDS011;22694;51.040;3.684;2022-11-14T14:30:07;9.30;;;7.25;;
36709;SDS011;22694;51.040;3.684;2022-11-14T14:32:39;8.25;;;7.32;;
36709;SDS011;22694;51.040;3.684;2022-11-14T14:38:04;9.30;;;7.40;;
36709;SDS011;22694;51.040;3.684;2022-11-14T14:40:38;8.52;;;7.53;;
36709;SDS011;22694;51.040;3.684;2022-11-14T14:43:05;9.23;;;7.68;;
36709;SDS011;22694;51.040;3.684;2022-11-14T14:45:35;9.30;;;7.95;;
36709;SDS011;22694;51.040;3.684;2022-11-14T14:48:21;9.55;;;7.95;;
36709;SDS011;22694;51.040;3.684;2022-11-14T14:50:55;19.67;;;6.95;;
36709;SDS011;22694;51.040;3.684;2022-11-14T14:53:26;7.68;;;6.38;;
36709;SDS011;22694;51.040;3.684;2022-11-14T14:55:55;7.60;;;6.90;;
36709;SDS011;22694;51.040;3.684;2022-11-14T14:58:26;8.48;;;7.38;;
36709;SDS011;22694;51.040;3.684;2022-11-14T15:03:30;7.72;;;6.85;;
36709;SDS011;22694;51.040;3.684;2022-11-14T15:06:05;8.50;;;6.85;;
36709;SDS011;22694;51.040;3.684;2022-11-14T15:08:45;11.00;;;6.95;;
36709;SDS011;22694;51.040;3.684;2022-11-14T15:11:11;9.57;;;7.22;;
36709;SDS011;22694;51.040;3.684;2022-11-14T15:13:38;9.70;;;7.38;;
36709;SDS011;22694;51.040;3.684;2022-11-14T15:16:06;9.32;;;8.15;;
36709;SDS011;22694;51.040;3.684;2022-11-14T15:18:33;8.52;;;6.90;;
36709;SDS011;22694;51.040;3.684;2022-11-14T15:21:09;9.63;;;7.78;;
36709;SDS011;22694;51.040;3.684;2022-11-14T15:23:38;8.63;;;7.43;;
36709;SDS011;22694;51.040;3.684;2022-11-14T15:26:09;8.48;;;6.78;;
36709;SDS011;22694;51.040;3.684;2022-11-14T15:28:45;11.10;;;7.82;;
36709;SDS011;22694;51.040;3.684;2022-11-14T15:31:20;8.82;;;6.93;;
36709;SDS011;22694;51.040;3.684;2022-11-14T15:34:01;8.63;;;7.57;;
36709;SDS011;22694;51.040;3.684;2022-11-14T15:36:28;7.28;;;6.50;;
36709;SDS011;22694;51.040;3.684;2022-11-14T15:39:02;9.30;;;7.40;;
36709;SDS011;22694;51.040;3.684;2022-11-14T15:41:47;7.72;;;6.93;;
36709;SDS011;22694;51.040;3.684;2022-11-14T15:44:29;8.02;;;7.22;;
36709;SDS011;22694;51.040;3.684;2022-11-14T15:46:56;9.77;;;7.10;;
36709;SDS011;22694;51.040;3.684;2022-11-14T15:49:23;9.75;;;7.78;;
36709;SDS011;22694;51.040;3.684;2022-11-14T15:51:51;8.57;;;6.95;;
36709;SDS011;22694;51.040;3.684;2022-11-14T15:56:50;11.07;;;6.55;;
36709;SDS011;22694;51.040;3.684;2022-11-14T15:59:16;7.45;;;6.00;;
36709;SDS011;22694;51.040;3.684;2022-11-14T16:01:42;10.10;;;6.25;;
36709;SDS011;22694;51.040;3.684;2022-11-14T16:04:14;8.50;;;6.55;;
36709;SDS011;22694;51.040;3.684;2022-11-14T16:06:42;9.13;;;7.13;;
36709;SDS011;22694;51.040;3.684;2022-11-14T16:09:15;8.13;;;6.43;;
36709;SDS011;22694;51.040;3.684;2022-11-14T16:11:42;7.82;;;6.63;;
36709;SDS011;22694;51.040;3.684;2022-11-14T16:14:08;8.73;;;6.53;;
36709;SDS011;22694;51.040;3.684;2022-11-14T16:16:34;9.40;;;6.65;;
36709;SDS011;22694;51.040;3.684;2022-11-14T16:18:59;8.35;;;6.72;;
36709;SDS011;22694;51.040;3.684;2022-11-14T16:21:25;7.32;;;5.82;;
36709;SDS011;22694;51.040;3.684;2022-11-14T16:23:51;8.35;;;6.38;;
36709;SDS011;22694;51.040;3.684;2022-11-14T16:26:16;8.30;;;6.47;;
36709;SDS011;22694;51.040;3.684;2022-11-14T16:28:42;8.90;;;7.30;;
36709;SDS011;22694;51.040;3.684;2022-11-14T16:31:11;8.82;;;6.68;;
36709;SDS011;22694;51.040;3.684;2022-11-14T16:33:37;7.03;;;6.30;;
36709;SDS011;22694;51.040;3.684;2022-11-14T16:36:03;8.70;;;6.40;;
36709;SDS011;22694;51.040;3.684;2022-11-14T16:38:29;9.18;;;6.80;;
36709;SDS011;22694;51.040;3.684;2022-11-14T16:40:55;7.43;;;6.60;;
36709;SDS011;22694;51.040;3.684;2022-11-14T16:43:20;9.35;;;6.78;;
36709;SDS011;22694;51.040;3.684;2022-11-14T16:45:46;7.07;;;6.32;;
36709;SDS011;22694;51.040;3.684;2022-11-14T16:48:12;7.55;;;6.80;;
36709;SDS011;22694;51.040;3.684;2022-11-14T16:50:38;6.90;;;6.05;;